Mason City, Washington
Current Conditions -  °F | °C
As of 4:53 PM on Wednesday 22 Oct 2014 (Local Time) from KOMK Reporting Station
Light Rain Light Rain  
Wind Chill: 50°   Ceiling: 2200
Heat Index: 50°   Visibility: 10mi
Dew Point: 48°   Wind: 5mph
Humidity: 93%   Direction: 220°SW
Pressure: 29.73"   Gusts: NA
Location:  48.2566°N, 119.238°W
Report Text: KOMK 222353Z AUTO 22004KT 10SM -RA OVC022 10/09 A2973 RMK AO2 SLP071 P0005 60040 T01000089 10100 20089 58024
Loading
Personal Weather Stations






























Interactive Weather Map
Tropical Storm Tracking
New forecast layout! Learn more

10-Day Weather Forecast

Advertisements
Track Severe Weather on mobile